Time;durP1;ratioP1;P1;durP2;ratioP2;P2;SDS_P1;SDS_P2;PMS_P1;PMS_P2;Temp;Humidity;BMP_temperature;BMP_pressure;BME280_temperature;BME280_humidity;BME280_pressure;Samples;Min_cycle;Max_cycle;Signal;HPM_P1;HPM_P2
2024/01/22 00:01:08;;;;;;;2.83;0.40;;;;;;;11.53;100.00;99198.59;4918704;29;20103;-82
2024/01/22 00:03:39;;;;;;;0.98;0.60;;;;;;;11.49;100.00;99194.25;4925595;29;20055;-85
2024/01/22 00:06:11;;;;;;;0.30;0.30;;;;;;;11.51;100.00;99195.13;4916534;29;20075;-84
2024/01/22 00:08:42;;;;;;;0.30;0.20;;;;;;;11.51;100.00;99200.31;4916085;29;20083;-84
2024/01/22 00:11:14;;;;;;;0.35;0.35;;;;;;;11.42;100.00;99192.53;4920984;29;20063;-84
2024/01/22 00:13:45;;;;;;;1.52;0.45;;;;;;;11.48;100.00;99199.47;4910656;29;20052;-86
2024/01/22 00:16:15;;;;;;;1.20;0.40;;;;;;;11.49;100.00;99198.59;4915766;29;20056;-88
2024/01/22 00:18:59;;;;;;;0.75;0.43;;;;;;;11.46;100.00;99201.19;4917789;29;20084;-90
2024/01/22 00:21:28;;;;;;;0.52;0.30;;;;;;;11.43;100.00;99191.69;4927878;29;20058;-88
2024/01/22 00:24:16;;;;;;;0.65;0.40;;;;;;;11.47;100.00;99195.13;4929714;29;20084;-92
2024/01/22 00:26:47;;;;;;;1.33;0.43;;;;;;;11.49;100.00;99196.00;4928536;29;20040;-89
2024/01/22 00:32:26;;;;;;;2.75;1.17;;;;;;;11.45;100.00;99186.50;4855702;29;20606;-90
2024/01/22 00:34:59;;;;;;;3.40;1.08;;;;;;;11.46;100.00;99191.69;4929102;29;20043;-89
2024/01/22 00:37:28;;;;;;;2.10;1.30;;;;;;;11.40;100.00;99189.06;4925094;29;20147;-87
2024/01/22 00:40:07;;;;;;;2.45;1.00;;;;;;;11.40;100.00;99190.81;4922042;29;20301;-87
2024/01/22 00:42:37;;;;;;;3.28;1.50;;;;;;;11.38;100.00;99184.75;4922450;29;20091;-88
2024/01/22 00:45:07;;;;;;;3.15;1.52;;;;;;;11.34;100.00;99181.31;4918971;29;20051;-91
2024/01/22 00:47:54;;;;;;;4.07;1.60;;;;;;;11.27;100.00;99189.91;4919480;29;20048;-90
2024/01/22 00:50:25;;;;;;;1.90;1.35;;;;;;;11.20;100.00;99185.59;4923864;29;20081;-88
2024/01/22 00:53:04;;;;;;;3.78;1.30;;;;;;;11.17;100.00;99175.25;4921844;29;20143;-88
2024/01/22 00:55:34;;;;;;;2.80;1.40;;;;;;;11.14;100.00;99183.00;4920666;29;20060;-90
2024/01/22 00:58:05;;;;;;;3.63;1.38;;;;;;;11.11;100.00;99184.72;4916051;29;20052;-91
2024/01/22 01:03:12;;;;;;;3.00;1.60;;;;;;;11.10;100.00;99190.75;5346331;22;20062;-88
2024/01/22 01:08:37;;;;;;;2.38;1.02;;;;;;;11.04;100.00;99172.66;4983338;28;20069;-85
2024/01/22 01:11:06;;;;;;;3.95;1.33;;;;;;;10.99;100.00;99174.34;4977000;28;20081;-84
2024/01/22 01:13:38;;;;;;;2.13;1.52;;;;;;;10.99;100.00;99166.56;4960509;28;20055;-83
2024/01/22 01:16:07;;;;;;;3.15;1.65;;;;;;;10.96;100.00;99169.16;4973981;28;20549;-83
2024/01/22 01:18:36;;;;;;;2.28;1.35;;;;;;;10.94;100.00;99164.84;4969296;28;20114;-83
2024/01/22 01:21:07;;;;;;;4.85;1.52;;;;;;;10.89;100.00;99157.06;4978999;28;20070;-83
2024/01/22 01:26:12;;;;;;;3.05;1.05;;;;;;;10.80;100.00;99162.22;5375886;23;20049;-85
2024/01/22 01:28:41;;;;;;;3.50;1.52;;;;;;;10.76;100.00;99165.66;5002857;28;20097;-83
2024/01/22 01:31:10;;;;;;;2.50;1.50;;;;;;;10.70;100.00;99161.34;4997908;28;20043;-83
2024/01/22 01:33:47;;;;;;;3.25;1.45;;;;;;;10.59;100.00;99148.34;4995149;28;20054;-86
2024/01/22 01:36:19;;;;;;;2.45;1.50;;;;;;;10.62;100.00;99161.28;4991176;28;20058;-85
2024/01/22 01:38:48;;;;;;;4.05;1.67;;;;;;;10.55;100.00;99164.72;4999374;28;20061;-87
2024/01/22 01:41:17;;;;;;;2.17;1.45;;;;;;;10.51;100.00;99164.69;4999441;28;20042;-84
2024/01/22 01:43:50;;;;;;;3.00;1.60;;;;;;;10.47;100.00;99163.84;5004596;28;20062;-91
2024/01/22 01:46:18;;;;;;;;;;;;;;;10.43;100.00;99156.91;4997737;28;20073;-88
2024/01/22 01:48:47;;;;;;;4.93;1.48;;;;;;;10.37;100.00;99151.72;5002982;28;20012;-89
2024/01/22 01:51:35;;;;;;;2.40;1.25;;;;;;;10.35;100.00;99158.59;4998004;28;20043;-91
2024/01/22 01:54:06;;;;;;;2.25;1.02;;;;;;;10.30;100.00;99157.72;4998926;28;20077;-90
2024/01/22 01:56:35;;;;;;;3.20;1.38;;;;;;;10.30;100.00;99152.53;4997347;28;20187;-93
2024/01/22 01:59:15;;;;;;;5.03;2.63;;;;;;;10.22;100.00;99147.31;4992461;28;20046;-92
2024/01/22 02:01:43;;;;;;;4.28;2.13;;;;;;;10.25;100.00;99150.75;4993597;28;20100;-89
2024/01/22 02:04:12;;;;;;;17.52;6.55;;;;;;;10.24;100.00;99151.63;4990147;28;20118;-90
2024/01/22 02:06:52;;;;;;;12.55;4.93;;;;;;;10.23;100.00;99146.44;4992190;28;20058;-89
2024/01/22 02:09:24;;;;;;;5.00;2.30;;;;;;;10.23;100.00;99142.13;4991794;28;20046;-90
2024/01/22 02:11:56;;;;;;;8.30;3.47;;;;;;;10.19;100.00;99143.00;4992062;28;20050;-89
2024/01/22 02:14:25;;;;;;;2.78;1.60;;;;;;;10.16;100.00;99140.38;4983670;28;20069;-86
2024/01/22 02:16:55;;;;;;;3.42;1.70;;;;;;;10.19;100.00;99150.75;4987846;28;20665;-86
2024/01/22 02:19:24;;;;;;;4.72;1.65;;;;;;;10.19;100.00;99153.34;4995174;28;20516;-88
2024/01/22 02:21:55;;;;;;;3.72;1.25;;;;;;;10.16;100.00;99148.13;4993896;28;20122;-88
2024/01/22 02:27:07;;;;;;;4.05;1.40;;;;;;;10.13;100.00;99136.94;4990338;28;20077;-87
2024/01/22 02:29:36;;;;;;;2.40;1.83;;;;;;;10.11;100.00;99142.06;4994491;28;20109;-88
2024/01/22 02:32:14;;;;;;;3.45;1.80;;;;;;;10.11;100.00;99139.50;4992492;28;20125;-88
2024/01/22 02:34:43;;;;;;;3.47;1.40;;;;;;;10.11;100.00;99139.50;4995544;28;20062;-89
2024/01/22 02:37:11;;;;;;;2.20;1.27;;;;;;;10.13;100.00;99135.19;4994505;28;20101;-88
2024/01/22 02:39:42;;;;;;;5.97;1.50;;;;;;;10.14;100.00;99142.06;4997235;28;20050;-87
2024/01/22 02:42:18;;;;;;;1.67;0.77;;;;;;;10.15;100.00;99135.22;4995254;28;20054;-87
2024/01/22 02:44:47;;;;;;;2.17;1.30;;;;;;;10.13;100.00;99136.94;4997683;28;20081;-89
2024/01/22 02:47:16;;;;;;;2.35;0.93;;;;;;;10.16;100.00;99140.38;4996413;28;20051;-90
2024/01/22 02:49:45;;;;;;;3.13;1.33;;;;;;;10.14;100.00;99139.50;4998532;28;20057;-87
2024/01/22 02:52:17;;;;;;;3.33;2.00;;;;;;;10.15;100.00;99136.06;4998664;28;20042;-87
2024/01/22 02:54:48;;;;;;;1.57;0.93;;;;;;;10.17;100.00;99139.53;5002540;28;20088;-87
2024/01/22 02:57:17;;;;;;;2.03;1.13;;;;;;;10.16;100.00;99132.63;4996692;28;20751;-87
2024/01/22 02:59:45;;;;;;;2.22;1.27;;;;;;;10.16;100.00;99142.97;4994749;28;20058;-88
2024/01/22 03:02:22;;;;;;;1.65;1.08;;;;;;;10.11;100.00;99134.31;4992865;28;20054;-88
2024/01/22 03:04:51;;;;;;;3.83;1.45;;;;;;;10.16;100.00;99142.09;4994537;28;20101;-87
2024/01/22 03:07:20;;;;;;;2.05;1.20;;;;;;;10.15;100.00;99138.66;5001522;28;20054;-89
2024/01/22 03:09:54;;;;;;;2.25;1.20;;;;;;;10.15;100.00;99146.41;4996843;28;20612;-88
2024/01/22 03:12:28;;;;;;;1.42;0.90;;;;;;;10.17;100.00;99139.53;4995563;28;20113;-87
2024/01/22 03:14:56;;;;;;;1.73;0.85;;;;;;;10.15;100.00;99120.56;4980964;28;20098;-88
2024/01/22 03:17:26;;;;;;;3.40;0.90;;;;;;;10.16;100.00;99126.59;4989633;28;20082;-90
2024/01/22 03:20:09;;;;;;;1.85;0.90;;;;;;;10.15;100.00;99120.56;5000410;28;20088;-88
2024/01/22 03:22:37;;;;;;;;;;;;;;;10.24;100.00;99123.19;4994827;28;20237;-88
2024/01/22 03:25:08;;;;;;;1.30;0.63;;;;;;;10.26;100.00;99116.31;4995339;28;20016;-87
2024/01/22 03:27:43;;;;;;;0.60;0.60;;;;;;;10.30;100.00;99111.19;4993398;28;20065;-88
2024/01/22 03:30:13;;;;;;;2.65;0.60;;;;;;;10.33;100.00;99118.94;4995290;28;20058;-89
2024/01/22 03:32:42;;;;;;;1.25;0.60;;;;;;;10.34;100.00;99116.38;4995735;28;20092;-89
2024/01/22 03:35:12;;;;;;;1.60;0.80;;;;;;;10.35;100.00;99123.25;4994651;28;20058;-88
2024/01/22 03:37:53;;;;;;;3.40;0.80;;;;;;;10.36;100.00;99118.97;4995255;28;20062;-89
2024/01/22 03:40:25;;;;;;;0.85;0.50;;;;;;;10.35;100.00;99104.28;5001530;28;20043;-87
2024/01/22 03:42:54;;;;;;;1.42;0.70;;;;;;;10.32;100.00;99102.56;5009342;28;20046;-87
2024/01/22 03:45:28;;;;;;;2.22;0.63;;;;;;;10.30;100.00;99093.94;5007421;28;20490;-87
2024/01/22 03:47:59;;;;;;;1.10;0.70;;;;;;;10.27;100.00;99089.59;4997347;28;20063;-87
2024/01/22 03:50:29;;;;;;;1.45;0.93;;;;;;;10.30;100.00;99087.91;5004177;28;20042;-87
2024/01/22 03:53:06;;;;;;;1.17;0.75;;;;;;;10.32;100.00;99091.38;5004142;28;20465;-87
2024/01/22 03:55:37;;;;;;;1.27;0.75;;;;;;;10.33;100.00;99087.91;5004347;28;20145;-88
2024/01/22 03:58:06;;;;;;;1.25;0.55;;;;;;;10.27;100.00;99068.06;5004618;28;20065;-87
2024/01/22 04:00:35;;;;;;;1.00;0.57;;;;;;;10.32;100.00;99075.84;5003594;28;20080;-86
2024/01/22 04:03:18;;;;;;;1.00;0.70;;;;;;;10.31;100.00;99079.28;4997711;28;20054;-87
2024/01/22 04:05:47;;;;;;;0.93;0.60;;;;;;;10.30;100.00;99075.84;4997547;28;20521;-86
2024/01/22 04:08:17;;;;;;;0.50;0.40;;;;;;;10.27;100.00;99076.66;5005597;28;21002;-86
2024/01/22 04:10:54;;;;;;;0.93;0.50;;;;;;;10.28;100.00;99069.75;4991650;28;20137;-88
2024/01/22 04:13:23;;;;;;;0.85;0.60;;;;;;;10.24;100.00;99058.56;4987573;28;20180;-87
2024/01/22 04:15:54;;;;;;;0.70;0.60;;;;;;;10.27;100.00;99058.56;4993468;28;20070;-88
2024/01/22 04:18:32;;;;;;;0.93;0.63;;;;;;;10.29;100.00;99061.19;4990526;28;20050;-86
2024/01/22 04:21:01;;;;;;;1.27;0.73;;;;;;;10.30;100.00;99049.13;5002233;28;20142;-87
2024/01/22 04:23:30;;;;;;;0.40;0.40;;;;;;;10.30;100.00;99051.72;4994307;28;20093;-86
2024/01/22 04:26:01;;;;;;;1.30;0.80;;;;;;;10.26;100.00;99041.34;4995408;28;20066;-88
2024/01/22 04:28:34;;;;;;;0.70;0.57;;;;;;;10.28;100.00;99041.34;4997951;28;20058;-88
2024/01/22 04:31:03;;;;;;;1.75;0.60;;;;;;;10.24;100.00;99040.47;4993927;28;20541;-87
2024/01/22 04:33:32;;;;;;;0.77;0.52;;;;;;;10.20;100.00;99045.63;4993080;28;20053;-90
2024/01/22 04:36:01;;;;;;;1.70;0.80;;;;;;;10.13;100.00;99038.72;4996890;28;20081;-90
2024/01/22 04:38:40;;;;;;;1.38;1.08;;;;;;;10.03;100.00;99037.78;4994685;28;20058;-92
2024/01/22 04:41:10;;;;;;;1.38;0.93;;;;;;;9.93;100.00;99021.41;4993344;28;20413;-88
2024/01/22 04:43:39;;;;;;;1.65;1.13;;;;;;;9.91;100.00;99027.41;4996903;28;20054;-85
2024/01/22 04:46:15;;;;;;;1.33;0.73;;;;;;;9.82;100.00;99034.25;4995459;28;20082;-87
2024/01/22 04:48:45;;;;;;;2.03;0.80;;;;;;;9.73;100.00;99026.47;4998427;28;20464;-88
2024/01/22 04:51:14;;;;;;;1.48;0.70;;;;;;;9.66;100.00;99022.13;4989767;28;20046;-87
2024/01/22 04:53:43;;;;;;;2.55;0.85;;;;;;;9.58;100.00;99026.41;4999801;28;20152;-86
2024/01/22 04:56:24;;;;;;;1.25;0.82;;;;;;;9.49;100.00;99028.94;4993764;28;20061;-87
2024/01/22 04:58:53;;;;;;;1.55;1.05;;;;;;;9.43;100.00;99014.25;4997149;28;20117;-89
2024/01/22 05:01:21;;;;;;;2.22;0.93;;;;;;;9.36;100.00;99007.31;4994061;28;20069;-86
2024/01/22 05:04:00;;;;;;;1.77;1.10;;;;;;;9.23;100.00;99001.22;4975700;28;20536;-87
2024/01/22 05:06:29;;;;;;;2.25;0.95;;;;;;;9.18;100.00;98990.00;4993898;28;20058;-87
2024/01/22 05:08:58;;;;;;;1.25;0.75;;;;;;;9.08;100.00;98986.50;4993021;28;20065;-88
2024/01/22 05:11:40;;;;;;;1.40;0.80;;;;;;;9.07;100.00;98994.22;4995766;28;20469;-87
2024/01/22 05:14:09;;;;;;;2.13;1.10;;;;;;;8.99;100.00;99001.91;4983056;28;20152;-87
2024/01/22 05:16:40;;;;;;;1.90;1.02;;;;;;;8.94;100.00;99004.47;4987426;28;20046;-87
2024/01/22 05:19:08;;;;;;;1.65;0.70;;;;;;;8.83;100.00;99005.22;4994743;28;20050;-87
2024/01/22 05:21:42;;;;;;;1.23;0.95;;;;;;;8.82;100.00;99009.53;4997374;28;20144;-87
2024/01/22 05:24:13;;;;;;;1.90;1.00;;;;;;;8.79;100.00;99004.31;4993864;28;20057;-87
2024/01/22 05:26:43;;;;;;;1.10;0.70;;;;;;;8.80;100.00;99000.91;4994706;28;20063;-88
2024/01/22 05:29:21;;;;;;;1.38;0.80;;;;;;;8.81;100.00;99008.63;4997192;28;20104;-87
2024/01/22 05:31:50;;;;;;;1.33;1.02;;;;;;;8.79;100.00;99010.34;4995052;28;20141;-87
2024/01/22 05:34:19;;;;;;;1.38;1.00;;;;;;;8.72;100.00;99002.53;4998798;28;20096;-87
2024/01/22 05:36:48;;;;;;;1.92;0.73;;;;;;;8.72;100.00;98997.38;4993563;28;20271;-89
2024/01/22 05:39:24;;;;;;;1.30;0.95;;;;;;;8.65;100.00;99001.63;4995335;28;20495;-88
2024/01/22 05:41:55;;;;;;;1.50;0.80;;;;;;;8.64;100.00;98989.59;4988287;28;20077;-89
2024/01/22 05:44:24;;;;;;;1.50;0.90;;;;;;;8.57;100.00;98973.19;4993075;28;20064;-89
2024/01/22 05:47:07;;;;;;;1.13;0.77;;;;;;;8.53;100.00;98971.44;4992849;28;20596;-89
2024/01/22 05:49:39;;;;;;;1.65;0.95;;;;;;;8.46;100.00;98973.97;4989594;28;20134;-89
2024/01/22 05:52:08;;;;;;;1.08;0.60;;;;;;;8.39;100.00;98971.28;4993375;28;20046;-89
2024/01/22 05:54:54;;;;;;;1.02;0.60;;;;;;;8.39;100.00;98970.44;4993712;28;20454;-90
2024/01/22 05:57:25;;;;;;;0.47;0.45;;;;;;;8.37;100.00;98972.13;4993642;28;20088;-90
2024/01/22 06:00:09;;;;;;;1.00;0.55;;;;;;;8.32;100.00;98964.34;4993224;28;20050;-90
2024/01/22 06:02:38;;;;;;;0.98;0.50;;;;;;;8.32;100.00;98960.91;4996999;28;20053;-90
2024/01/22 06:07:50;;;;;;;0.70;0.60;;;;;;;8.19;100.00;98953.03;4998897;28;20045;-93
2024/01/22 06:10:19;;;;;;;1.50;0.77;;;;;;;8.16;100.00;98950.44;4995442;28;20051;-89
2024/01/22 06:12:52;;;;;;;1.65;0.85;;;;;;;8.06;100.00;98943.44;4995387;28;20073;-90
2024/01/22 06:15:25;;;;;;;3.20;0.80;;;;;;;8.08;100.00;98962.38;4974429;28;20053;-91
2024/01/22 06:17:54;;;;;;;1.33;0.70;;;;;;;8.06;100.00;98969.22;4991983;28;20136;-90
2024/01/22 06:20:23;;;;;;;0.88;0.60;;;;;;;8.04;100.00;98965.78;4997850;28;20047;-88
2024/01/22 06:22:52;;;;;;;2.15;0.93;;;;;;;8.08;100.00;98967.53;4992620;28;20153;-89
2024/01/22 06:25:28;;;;;;;1.25;0.70;;;;;;;8.04;100.00;98949.44;4994457;28;20133;-89
2024/01/22 06:27:59;;;;;;;0.90;0.70;;;;;;;8.16;100.00;98968.47;4997357;28;20057;-88
2024/01/22 06:30:28;;;;;;;1.52;0.70;;;;;;;8.21;100.00;98975.41;4996146;28;20061;-87
2024/01/22 06:32:57;;;;;;;1.77;0.70;;;;;;;8.19;100.00;98971.06;4996220;28;20370;-89
2024/01/22 06:35:28;;;;;;;0.70;0.70;;;;;;;8.16;100.00;98965.91;4999483;28;20078;-88
2024/01/22 06:37:57;;;;;;;2.58;0.70;;;;;;;8.18;100.00;98964.22;5001861;28;20042;-89
2024/01/22 06:40:26;;;;;;;0.60;0.40;;;;;;;8.21;100.00;98968.53;5007822;28;20062;-89
2024/01/22 06:42:55;;;;;;;0.80;0.65;;;;;;;8.19;100.00;98976.22;4998971;28;20077;-88
2024/01/22 06:45:34;;;;;;;0.90;0.60;;;;;;;8.19;100.00;98971.06;5003229;28;20058;-87
2024/01/22 06:48:03;;;;;;;0.65;0.50;;;;;;;8.21;100.00;98983.97;4994717;28;20510;-87
2024/01/22 06:50:31;;;;;;;1.38;0.85;;;;;;;8.24;100.00;98988.31;5004064;28;20052;-88
2024/01/22 06:53:03;;;;;;;1.08;0.73;;;;;;;8.29;100.00;98989.19;5002617;28;20051;-88
2024/01/22 07:50:06;;;;;;;0.68;0.50;;;;;;;8.57;100.00;98955.16;5341381;23;20085;-87
2024/01/22 07:52:35;;;;;;;0.30;0.20;;;;;;;8.60;100.00;98950.00;5008806;28;20058;-86
2024/01/22 07:57:50;;;;;;;0.40;0.30;;;;;;;8.64;100.00;98952.63;5017301;28;20070;-88
2024/01/22 08:00:19;;;;;;;0.68;0.30;;;;;;;8.63;100.00;98949.19;5009753;28;20073;-88
2024/01/22 08:02:56;;;;;;;0.52;0.30;;;;;;;8.65;100.00;98955.22;5005526;28;20050;-88
2024/01/22 08:05:30;;;;;;;0.50;0.32;;;;;;;8.64;100.00;98939.75;5010434;28;20057;-90
2024/01/22 08:07:59;;;;;;;0.77;0.30;;;;;;;8.69;100.00;98945.81;5001149;28;20089;-88
2024/01/22 08:10:35;;;;;;;0.50;0.30;;;;;;;8.68;100.00;98926.91;5006172;28;20062;-88
2024/01/22 08:13:05;;;;;;;0.43;0.40;;;;;;;8.71;100.00;98939.81;4987128;28;20093;-88
2024/01/22 08:15:34;;;;;;;1.83;0.60;;;;;;;8.71;100.00;98926.91;4998167;28;20086;-88
2024/01/22 08:20:47;;;;;;;0.20;0.20;;;;;;;8.78;100.00;98925.25;5008411;28;20053;-88
2024/01/22 08:23:16;;;;;;;0.98;0.40;;;;;;;8.82;100.00;98921.84;5008522;28;20109;-88
2024/01/22 08:25:57;;;;;;;0.50;0.30;;;;;;;8.83;100.00;98918.41;5007187;28;20050;-89
2024/01/22 08:28:26;;;;;;;0.32;0.20;;;;;;;8.89;100.00;98917.59;5010677;28;20510;-88
2024/01/22 08:30:56;;;;;;;0.20;0.20;;;;;;;8.93;100.00;98920.19;5008166;28;20116;-88
2024/01/22 08:33:27;;;;;;;1.13;0.40;;;;;;;8.91;100.00;98911.59;5006697;28;20058;-87
2024/01/22 08:36:09;;;;;;;1.58;0.40;;;;;;;9.01;100.00;98918.50;4998121;28;20057;-88
2024/01/22 08:38:38;;;;;;;0.30;0.30;;;;;;;9.04;100.00;98922.81;5001102;28;20077;-87
2024/01/22 08:41:12;;;;;;;0.22;0.15;;;;;;;9.05;100.00;98913.38;5005342;28;20461;-87
2024/01/22 08:43:41;;;;;;;0.30;0.10;;;;;;;9.14;100.00;98927.22;5000850;28;20061;-88
2024/01/22 08:46:10;;;;;;;0.65;0.20;;;;;;;9.17;100.00;98922.06;5001917;28;20050;-88
2024/01/22 08:48:38;;;;;;;0.50;0.30;;;;;;;9.20;100.00;98923.78;5000451;28;20067;-88
2024/01/22 08:51:14;;;;;;;0.55;0.30;;;;;;;9.22;100.00;98916.91;4996275;28;20077;-88
2024/01/22 08:53:43;;;;;;;0.35;0.20;;;;;;;9.31;100.00;98927.28;5002521;28;20053;-88
2024/01/22 08:56:13;;;;;;;0.60;0.30;;;;;;;9.37;100.00;98929.06;4998792;28;20085;-88
2024/01/22 08:58:42;;;;;;;0.30;0.20;;;;;;;9.40;100.00;98924.75;5002688;28;20664;-88
2024/01/22 09:01:19;;;;;;;0.90;0.50;;;;;;;9.43;100.00;98929.91;4996150;28;20133;-88
2024/01/22 09:03:48;;;;;;;0.95;0.50;;;;;;;9.49;100.00;98931.69;5000909;28;20057;-89
2024/01/22 09:06:19;;;;;;;1.25;0.50;;;;;;;9.54;100.00;98937.72;4997351;28;20046;-88
2024/01/22 09:08:52;;;;;;;1.85;0.63;;;;;;;9.57;100.00;98942.88;4996568;28;20488;-89
2024/01/22 09:11:23;;;;;;;0.50;0.40;;;;;;;9.58;100.00;98941.19;5000414;28;20055;-88
2024/01/22 09:13:52;;;;;;;0.88;0.65;;;;;;;9.59;100.00;98940.31;4985737;28;20146;-88
2024/01/22 09:16:21;;;;;;;1.30;0.65;;;;;;;9.62;100.00;98932.56;4992326;28;20134;-88
2024/01/22 09:18:50;;;;;;;0.80;0.50;;;;;;;9.61;100.00;98942.06;4996246;28;20054;-88
2024/01/22 09:21:23;;;;;;;1.08;0.63;;;;;;;9.63;100.00;98952.41;5001098;28;20058;-88
2024/01/22 09:23:52;;;;;;;1.33;0.70;;;;;;;9.62;100.00;98948.06;4998370;28;20156;-88
2024/01/22 09:26:21;;;;;;;0.77;0.50;;;;;;;9.65;100.00;98948.09;4989245;28;20050;-88
2024/01/22 09:28:50;;;;;;;1.40;0.52;;;;;;;9.67;100.00;98956.72;4996392;28;20061;-89
2024/01/22 09:31:27;;;;;;;1.50;0.70;;;;;;;9.64;100.00;98946.34;5000794;28;20085;-89
2024/01/22 09:33:56;;;;;;;2.50;0.70;;;;;;;9.73;100.00;98955.88;4998266;28;20418;-88
2024/01/22 09:36:29;;;;;;;1.83;0.82;;;;;;;9.70;100.00;98959.31;4997450;28;20126;-87
2024/01/22 09:39:07;;;;;;;1.00;0.57;;;;;;;9.76;100.00;98955.91;4995650;28;20506;-87
2024/01/22 09:41:36;;;;;;;2.13;0.82;;;;;;;9.76;100.00;98950.75;5001455;28;20062;-87
2024/01/22 09:44:06;;;;;;;1.08;0.65;;;;;;;9.80;100.00;98957.63;4996642;28;20054;-87
2024/01/22 09:46:47;;;;;;;1.08;0.63;;;;;;;9.82;100.00;98956.75;4997403;28;20084;-88
2024/01/22 09:49:16;;;;;;;2.08;0.70;;;;;;;9.84;100.00;98962.81;4998748;28;20053;-88
2024/01/22 09:51:47;;;;;;;2.08;0.50;;;;;;;9.84;100.00;98967.97;4997155;28;20046;-88
2024/01/22 09:54:28;;;;;;;1.02;0.50;;;;;;;9.81;100.00;98970.56;4999395;28;20057;-87
2024/01/22 09:56:58;;;;;;;2.33;0.50;;;;;;;9.84;100.00;98965.38;5001516;28;20050;-87
2024/01/22 09:59:28;;;;;;;0.70;0.50;;;;;;;9.85;100.00;98963.69;4996436;28;20050;-89
2024/01/22 10:04:39;;;;;;;1.45;0.80;;;;;;;9.83;100.00;98976.59;4993181;28;20117;-88
2024/01/22 10:07:13;;;;;;;1.50;0.50;;;;;;;9.80;100.00;98973.13;4998513;28;20141;-89
2024/01/22 10:09:50;;;;;;;1.92;0.80;;;;;;;9.78;100.00;98975.72;4998495;28;20061;-89
2024/01/22 10:12:19;;;;;;;1.75;0.75;;;;;;;9.75;100.00;98975.69;5000717;28;20069;-89
2024/01/22 10:14:48;;;;;;;2.72;0.68;;;;;;;9.72;100.00;98973.09;4984561;28;20058;-89
2024/01/22 10:17:26;;;;;;;0.93;0.68;;;;;;;9.72;100.00;98975.69;4991209;28;20073;-88
2024/01/22 10:19:55;;;;;;;3.80;0.70;;;;;;;9.75;100.00;98980.84;4996202;28;20053;-88
2024/01/22 10:22:26;;;;;;;1.85;1.05;;;;;;;9.75;100.00;98974.81;4999813;28;20058;-89
2024/01/22 10:25:09;;;;;;;2.65;0.98;;;;;;;9.75;100.00;98980.84;4993204;28;20055;-88
2024/01/22 10:27:39;;;;;;;2.65;0.85;;;;;;;9.72;100.00;98978.25;5000287;28;20058;-87
2024/01/22 10:30:11;;;;;;;4.25;0.77;;;;;;;9.67;100.00;98979.97;4996124;28;20077;-89
2024/01/22 10:35:25;;;;;;;2.83;1.02;;;;;;;9.62;100.00;98979.06;4998121;28;19980;-87
2024/01/22 10:38:13;;;;;;;2.33;0.80;;;;;;;9.56;100.00;98974.75;4993222;28;20034;-88
2024/01/22 10:40:42;;;;;;;1.55;0.80;;;;;;;9.51;100.00;98970.44;4997871;28;20050;-88
2024/01/22 10:43:28;;;;;;;1.48;0.60;;;;;;;9.52;100.00;98969.56;5000363;28;20070;-88
2024/01/22 10:45:58;;;;;;;0.95;0.50;;;;;;;9.55;100.00;98977.31;4998270;28;20056;-88
2024/01/22 10:48:28;;;;;;;3.28;1.10;;;;;;;9.52;100.00;98956.66;4996770;28;20050;-88
2024/01/22 10:50:57;;;;;;;1.15;0.60;;;;;;;9.57;100.00;98976.44;4997751;28;20057;-89
2024/01/22 10:53:34;;;;;;;1.65;0.90;;;;;;;9.56;100.00;98969.56;4995126;28;20414;-88
2024/01/22 10:56:05;;;;;;;1.35;0.93;;;;;;;9.56;100.00;98969.56;4997840;28;20112;-88
2024/01/22 10:58:44;;;;;;;0.32;0.22;;;;;;;9.55;100.00;98964.41;4999358;28;20065;-88
2024/01/22 11:01:17;;;;;;;2.08;0.65;;;;;;;9.57;100.00;98975.59;4995812;28;20498;-89
2024/01/22 11:03:49;;;;;;;3.67;0.65;;;;;;;9.52;100.00;98966.97;4996725;28;20171;-89
2024/01/22 11:06:22;;;;;;;0.55;0.47;;;;;;;9.59;100.00;98973.88;5002220;28;20142;-88
2024/01/22 11:08:57;;;;;;;1.33;0.82;;;;;;;9.57;100.00;98962.69;4995690;28;20053;-88
2024/01/22 11:11:27;;;;;;;1.42;0.75;;;;;;;9.62;100.00;98972.19;4998873;28;20137;-88
2024/01/22 11:13:58;;;;;;;0.38;0.22;;;;;;;9.58;100.00;98957.53;4988004;28;20108;-88
2024/01/22 11:16:30;;;;;;;0.85;0.40;;;;;;;9.62;100.00;98958.41;4973780;28;20054;-88
2024/01/22 11:19:01;;;;;;;0.10;0.10;;;;;;;9.65;100.00;98966.19;4995627;28;20057;-89
2024/01/22 11:24:23;;;;;;;0.10;0.10;;;;;;;9.73;100.00;98977.38;4993362;28;20062;-89
2024/01/22 11:27:12;;;;;;;0.10;0.10;;;;;;;9.82;100.00;98974.84;4995142;28;20047;-90
2024/01/22 11:29:40;;;;;;;0.43;0.15;;;;;;;9.84;100.00;98975.72;5000109;28;20054;-89
2024/01/22 11:32:29;;;;;;;1.23;0.20;;;;;;;9.93;100.00;98979.22;4991703;28;20105;-90
2024/01/22 11:35:00;;;;;;;0.55;0.30;;;;;;;9.88;100.00;98975.75;4994325;28;20058;-89
2024/01/22 11:37:48;;;;;;;0.10;0.08;;;;;;;9.92;100.00;98969.72;4996269;28;20038;-88
2024/01/22 11:40:46;;;;;;;1.13;0.35;;;;;;;9.97;100.00;98975.78;5003931;28;20103;-89
2024/01/22 11:43:17;;;;;;;0.50;0.20;;;;;;;9.97;100.00;98980.94;5001500;28;20105;-89
2024/01/22 11:45:47;;;;;;;0.70;0.20;;;;;;;9.97;100.00;98975.78;5007559;28;20051;-89
2024/01/22 11:48:27;;;;;;;0.32;0.20;;;;;;;10.03;100.00;98980.94;5001691;28;20070;-90
2024/01/22 11:50:59;;;;;;;0.68;0.10;;;;;;;10.07;100.00;98987.84;4999737;28;20066;-89
2024/01/22 11:53:29;;;;;;;0.20;0.20;;;;;;;10.12;100.00;98969.78;5005002;28;20046;-90
2024/01/22 11:56:09;;;;;;;0.60;0.32;;;;;;;10.11;100.00;98965.47;5000186;28;20130;-89
2024/01/22 11:58:37;;;;;;;0.17;0.10;;;;;;;10.17;100.00;98979.28;5006666;28;20145;-89
2024/01/22 12:01:11;;;;;;;1.00;0.10;;;;;;;10.18;100.00;98988.75;4999661;28;20104;-89
2024/01/22 12:03:49;;;;;;;0.00;0.00;;;;;;;10.19;100.00;98985.31;5004651;28;20065;-87
2024/01/22 12:06:18;;;;;;;0.75;0.20;;;;;;;10.30;100.00;98984.50;5002094;28;20074;-87
2024/01/22 12:08:59;;;;;;;0.35;0.15;;;;;;;10.27;100.00;98978.44;5000441;28;20076;-88
2024/01/22 12:11:38;;;;;;;0.63;0.32;;;;;;;10.27;100.00;98985.34;5001070;28;20054;-91
2024/01/22 12:14:06;;;;;;;0.55;0.08;;;;;;;10.35;100.00;98993.13;4987668;28;20055;-90
2024/01/22 12:16:48;;;;;;;0.57;0.20;;;;;;;10.35;100.00;98982.78;4993140;28;20065;-89
2024/01/22 12:19:17;;;;;;;0.10;0.10;;;;;;;10.42;100.00;98979.34;4995756;28;20058;-92
2024/01/22 12:21:46;;;;;;;0.47;0.22;;;;;;;10.51;100.00;98994.88;4999265;28;20054;-89
2024/01/22 12:24:24;;;;;;;0.20;0.10;;;;;;;10.51;100.00;98994.88;5009204;28;20101;-89
2024/01/22 12:26:56;;;;;;;0.00;0.00;;;;;;;10.54;100.00;99004.38;4996855;28;20409;-90
2024/01/22 12:29:26;;;;;;;0.40;0.10;;;;;;;10.55;100.00;98995.75;5002918;28;20077;-91
2024/01/22 12:32:13;;;;;;;0.10;0.10;;;;;;;10.56;100.00;98993.19;5000178;28;20121;-91
2024/01/22 12:34:42;;;;;;;0.10;0.08;;;;;;;10.62;100.00;98995.75;4999116;28;20043;-88
2024/01/22 12:37:27;;;;;;;0.20;0.10;;;;;;;10.65;100.00;98995.78;5002888;28;20046;-92
2024/01/22 12:40:23;;;;;;;0.45;0.10;;;;;;;10.67;100.00;99012.16;4995634;28;20154;-91
2024/01/22 12:43:02;;;;;;;2.97;0.10;;;;;;;10.67;100.00;99004.41;4996499;28;20544;-90
2024/01/22 12:45:41;;;;;;;0.35;0.10;;;;;;;10.61;100.00;99012.16;4996455;28;20086;-89
2024/01/22 12:48:13;;;;;;;0.63;0.05;;;;;;;10.59;100.00;98992.31;4993504;28;20046;-88
2024/01/22 12:50:41;;;;;;;0.23;0.10;;;;;;;10.63;100.00;99002.66;4998060;28;20056;-87
2024/01/22 12:53:22;;;;;;;1.00;0.00;;;;;;;10.67;100.00;99001.81;4999264;28;20046;-90
2024/01/22 12:55:50;;;;;;;0.10;0.00;;;;;;;10.62;100.00;99002.66;4994647;28;20182;-88
2024/01/22 12:58:22;;;;;;;0.75;0.32;;;;;;;10.61;100.00;99003.53;4997972;28;20078;-88
2024/01/22 13:00:50;;;;;;;0.73;0.10;;;;;;;10.60;100.00;98999.19;5001679;28;20129;-91
2024/01/22 13:03:27;;;;;;;3.08;0.10;;;;;;;10.59;100.00;98998.34;4999922;28;20120;-89
2024/01/22 13:05:56;;;;;;;0.30;0.10;;;;;;;10.61;100.00;98999.22;4997245;28;20065;-90
2024/01/22 13:08:25;;;;;;;0.57;0.10;;;;;;;10.54;100.00;99010.41;4997711;28;20074;-92
2024/01/22 13:13:38;;;;;;;0.17;0.10;;;;;;;10.52;100.00;99011.28;4988217;28;20737;-87
2024/01/22 13:16:07;;;;;;;0.00;0.00;;;;;;;10.54;100.00;99025.94;4993501;28;20114;-86
2024/01/22 13:18:40;;;;;;;1.52;0.10;;;;;;;10.53;100.00;99024.19;4993037;28;20120;-89
2024/01/22 13:21:10;;;;;;;1.85;0.13;;;;;;;10.50;100.00;99028.50;5000135;28;20058;-90